sensor_id;sensor_type;location;lat;lon;timestamp;P1;durP1;ratioP1;P2;durP2;ratioP2
74512;SDS011;62992;52.052;8.550;2022-12-22T00:00:44;5.70;;;3.78;;
74512;SDS011;62992;52.052;8.550;2022-12-22T00:03:47;7.25;;;4.20;;
74512;SDS011;62992;52.052;8.550;2022-12-22T00:06:50;4.43;;;3.45;;
74512;SDS011;62992;52.052;8.550;2022-12-22T00:09:53;6.18;;;3.95;;
74512;SDS011;62992;52.052;8.550;2022-12-22T00:12:56;8.35;;;4.05;;
74512;SDS011;62992;52.052;8.550;2022-12-22T00:15:59;5.47;;;3.85;;
74512;SDS011;62992;52.052;8.550;2022-12-22T00:19:02;8.38;;;4.50;;
74512;SDS011;62992;52.052;8.550;2022-12-22T00:22:13;5.88;;;3.92;;
74512;SDS011;62992;52.052;8.550;2022-12-22T00:25:21;6.97;;;3.95;;
74512;SDS011;62992;52.052;8.550;2022-12-22T00:28:24;4.68;;;3.75;;
74512;SDS011;62992;52.052;8.550;2022-12-22T00:31:27;5.82;;;3.75;;
74512;SDS011;62992;52.052;8.550;2022-12-22T00:34:31;4.18;;;3.47;;
74512;SDS011;62992;52.052;8.550;2022-12-22T00:37:41;5.03;;;4.10;;
74512;SDS011;62992;52.052;8.550;2022-12-22T00:40:44;6.53;;;4.47;;
74512;SDS011;62992;52.052;8.550;2022-12-22T00:43:46;5.22;;;3.95;;
74512;SDS011;62992;52.052;8.550;2022-12-22T00:46:49;6.05;;;4.55;;
74512;SDS011;62992;52.052;8.550;2022-12-22T00:49:53;6.43;;;4.35;;
74512;SDS011;62992;52.052;8.550;2022-12-22T00:52:56;5.60;;;4.15;;
74512;SDS011;62992;52.052;8.550;2022-12-22T00:56:01;7.80;;;4.85;;
74512;SDS011;62992;52.052;8.550;2022-12-22T00:59:07;6.53;;;3.80;;
74512;SDS011;62992;52.052;8.550;2022-12-22T01:02:12;5.78;;;4.32;;
74512;SDS011;62992;52.052;8.550;2022-12-22T01:05:15;5.72;;;3.95;;
74512;SDS011;62992;52.052;8.550;2022-12-22T01:08:18;4.82;;;3.30;;
74512;SDS011;62992;52.052;8.550;2022-12-22T01:11:21;10.85;;;3.97;;
74512;SDS011;62992;52.052;8.550;2022-12-22T01:14:24;4.75;;;3.78;;
74512;SDS011;62992;52.052;8.550;2022-12-22T01:17:27;4.75;;;3.55;;
74512;SDS011;62992;52.052;8.550;2022-12-22T01:20:30;6.10;;;3.58;;
74512;SDS011;62992;52.052;8.550;2022-12-22T01:23:33;4.88;;;3.75;;
74512;SDS011;62992;52.052;8.550;2022-12-22T01:26:36;5.47;;;3.58;;
74512;SDS011;62992;52.052;8.550;2022-12-22T01:29:39;4.60;;;3.50;;
74512;SDS011;62992;52.052;8.550;2022-12-22T01:32:43;5.85;;;3.22;;
74512;SDS011;62992;52.052;8.550;2022-12-22T01:35:46;5.07;;;3.15;;
74512;SDS011;62992;52.052;8.550;2022-12-22T01:38:49;4.22;;;3.30;;
74512;SDS011;62992;52.052;8.550;2022-12-22T01:41:51;4.03;;;2.97;;
74512;SDS011;62992;52.052;8.550;2022-12-22T01:44:54;5.30;;;3.50;;
74512;SDS011;62992;52.052;8.550;2022-12-22T01:48:02;4.78;;;3.03;;
74512;SDS011;62992;52.052;8.550;2022-12-22T01:51:06;5.25;;;3.25;;
74512;SDS011;62992;52.052;8.550;2022-12-22T01:54:16;4.20;;;3.28;;
74512;SDS011;62992;52.052;8.550;2022-12-22T01:57:19;4.78;;;3.47;;
74512;SDS011;62992;52.052;8.550;2022-12-22T02:00:22;4.28;;;3.28;;
74512;SDS011;62992;52.052;8.550;2022-12-22T02:03:25;5.57;;;3.90;;
74512;SDS011;62992;52.052;8.550;2022-12-22T02:12:53;5.03;;;3.67;;
74512;SDS011;62992;52.052;8.550;2022-12-22T02:16:06;6.90;;;3.92;;
74512;SDS011;62992;52.052;8.550;2022-12-22T02:26:36;5.40;;;3.88;;
74512;SDS011;62992;52.052;8.550;2022-12-22T02:29:48;5.50;;;4.05;;
74512;SDS011;62992;52.052;8.550;2022-12-22T02:32:56;4.07;;;3.35;;
74512;SDS011;62992;52.052;8.550;2022-12-22T02:42:34;4.18;;;3.10;;
74512;SDS011;62992;52.052;8.550;2022-12-22T02:52:17;4.53;;;2.88;;
74512;SDS011;62992;52.052;8.550;2022-12-22T02:55:26;4.55;;;3.00;;
74512;SDS011;62992;52.052;8.550;2022-12-22T02:58:31;4.75;;;2.83;;
74512;SDS011;62992;52.052;8.550;2022-12-22T03:01:36;3.72;;;2.85;;
74512;SDS011;62992;52.052;8.550;2022-12-22T03:04:40;3.60;;;2.78;;
74512;SDS011;62992;52.052;8.550;2022-12-22T03:07:42;4.63;;;3.00;;
74512;SDS011;62992;52.052;8.550;2022-12-22T03:10:45;3.40;;;2.55;;
74512;SDS011;62992;52.052;8.550;2022-12-22T03:13:48;4.25;;;3.08;;
74512;SDS011;62992;52.052;8.550;2022-12-22T03:16:51;5.80;;;3.78;;
74512;SDS011;62992;52.052;8.550;2022-12-22T03:19:54;5.20;;;3.50;;
74512;SDS011;62992;52.052;8.550;2022-12-22T03:23:02;4.50;;;3.47;;
74512;SDS011;62992;52.052;8.550;2022-12-22T03:26:05;4.53;;;3.20;;
74512;SDS011;62992;52.052;8.550;2022-12-22T03:28:49;3.30;;;2.70;;
74512;SDS011;62992;52.052;8.550;2022-12-22T03:31:34;5.32;;;3.30;;
74512;SDS011;62992;52.052;8.550;2022-12-22T03:34:17;4.60;;;3.15;;
74512;SDS011;62992;52.052;8.550;2022-12-22T03:37:02;4.63;;;3.20;;
74512;SDS011;62992;52.052;8.550;2022-12-22T03:39:46;5.00;;;3.28;;
74512;SDS011;62992;52.052;8.550;2022-12-22T03:42:30;4.60;;;3.40;;
74512;SDS011;62992;52.052;8.550;2022-12-22T03:45:32;5.50;;;3.63;;
74512;SDS011;62992;52.052;8.550;2022-12-22T03:48:35;5.72;;;3.40;;
74512;SDS011;62992;52.052;8.550;2022-12-22T03:51:20;4.80;;;3.35;;
74512;SDS011;62992;52.052;8.550;2022-12-22T03:54:04;6.65;;;3.85;;
74512;SDS011;62992;52.052;8.550;2022-12-22T03:56:48;4.32;;;3.42;;
74512;SDS011;62992;52.052;8.550;2022-12-22T03:59:33;5.43;;;3.90;;
74512;SDS011;62992;52.052;8.550;2022-12-22T04:02:17;5.57;;;3.45;;
74512;SDS011;62992;52.052;8.550;2022-12-22T04:05:01;5.30;;;4.50;;
74512;SDS011;62992;52.052;8.550;2022-12-22T04:07:45;5.07;;;3.22;;
74512;SDS011;62992;52.052;8.550;2022-12-22T04:10:29;5.07;;;3.47;;
74512;SDS011;62992;52.052;8.550;2022-12-22T04:13:32;4.07;;;3.28;;
74512;SDS011;62992;52.052;8.550;2022-12-22T04:16:15;5.15;;;3.25;;
74512;SDS011;62992;52.052;8.550;2022-12-22T04:19:00;4.22;;;3.30;;
74512;SDS011;62992;52.052;8.550;2022-12-22T04:21:44;3.25;;;2.83;;
74512;SDS011;62992;52.052;8.550;2022-12-22T04:24:28;5.28;;;3.60;;
74512;SDS011;62992;52.052;8.550;2022-12-22T04:27:12;4.75;;;2.92;;
74512;SDS011;62992;52.052;8.550;2022-12-22T04:29:56;4.03;;;3.03;;
74512;SDS011;62992;52.052;8.550;2022-12-22T04:32:40;4.53;;;3.42;;
74512;SDS011;62992;52.052;8.550;2022-12-22T04:35:24;3.97;;;2.85;;
74512;SDS011;62992;52.052;8.550;2022-12-22T04:38:08;4.43;;;2.70;;
74512;SDS011;62992;52.052;8.550;2022-12-22T04:40:52;6.35;;;3.53;;
74512;SDS011;62992;52.052;8.550;2022-12-22T04:43:36;5.07;;;3.20;;
74512;SDS011;62992;52.052;8.550;2022-12-22T04:46:20;5.07;;;3.58;;
74512;SDS011;62992;52.052;8.550;2022-12-22T04:49:04;4.80;;;2.92;;
74512;SDS011;62992;52.052;8.550;2022-12-22T04:51:48;4.68;;;3.13;;
74512;SDS011;62992;52.052;8.550;2022-12-22T04:54:32;3.88;;;3.05;;
74512;SDS011;62992;52.052;8.550;2022-12-22T04:57:16;4.10;;;2.75;;
74512;SDS011;62992;52.052;8.550;2022-12-22T05:00:01;4.03;;;2.97;;
74512;SDS011;62992;52.052;8.550;2022-12-22T05:02:46;4.68;;;3.10;;
74512;SDS011;62992;52.052;8.550;2022-12-22T05:05:30;5.20;;;3.38;;
74512;SDS011;62992;52.052;8.550;2022-12-22T05:08:14;6.43;;;4.50;;
74512;SDS011;62992;52.052;8.550;2022-12-22T05:10:58;5.90;;;4.20;;
74512;SDS011;62992;52.052;8.550;2022-12-22T05:13:43;7.32;;;4.88;;
74512;SDS011;62992;52.052;8.550;2022-12-22T05:16:27;5.65;;;4.22;;
74512;SDS011;62992;52.052;8.550;2022-12-22T05:19:11;6.70;;;4.35;;
74512;SDS011;62992;52.052;8.550;2022-12-22T05:21:55;5.22;;;4.03;;
74512;SDS011;62992;52.052;8.550;2022-12-22T05:24:39;6.28;;;3.85;;
74512;SDS011;62992;52.052;8.550;2022-12-22T05:27:23;4.88;;;3.67;;
74512;SDS011;62992;52.052;8.550;2022-12-22T05:30:07;5.07;;;3.78;;
74512;SDS011;62992;52.052;8.550;2022-12-22T05:32:52;5.45;;;4.13;;
74512;SDS011;62992;52.052;8.550;2022-12-22T05:35:36;5.80;;;4.07;;
74512;SDS011;62992;52.052;8.550;2022-12-22T05:38:20;5.38;;;4.00;;
74512;SDS011;62992;52.052;8.550;2022-12-22T05:41:04;5.72;;;3.97;;
74512;SDS011;62992;52.052;8.550;2022-12-22T05:43:49;6.30;;;4.13;;
74512;SDS011;62992;52.052;8.550;2022-12-22T05:46:33;5.80;;;3.67;;
74512;SDS011;62992;52.052;8.550;2022-12-22T05:49:18;6.18;;;4.40;;
74512;SDS011;62992;52.052;8.550;2022-12-22T05:52:03;7.57;;;4.93;;
74512;SDS011;62992;52.052;8.550;2022-12-22T05:54:47;6.88;;;4.60;;
74512;SDS011;62992;52.052;8.550;2022-12-22T05:57:31;6.22;;;4.45;;
74512;SDS011;62992;52.052;8.550;2022-12-22T06:00:16;6.68;;;4.68;;
74512;SDS011;62992;52.052;8.550;2022-12-22T06:03:00;6.35;;;4.30;;
74512;SDS011;62992;52.052;8.550;2022-12-22T06:05:44;5.47;;;4.20;;
74512;SDS011;62992;52.052;8.550;2022-12-22T06:08:32;7.30;;;4.28;;
74512;SDS011;62992;52.052;8.550;2022-12-22T06:11:16;6.55;;;4.45;;
74512;SDS011;62992;52.052;8.550;2022-12-22T06:14:02;5.60;;;3.97;;
74512;SDS011;62992;52.052;8.550;2022-12-22T06:16:46;5.78;;;4.47;;
74512;SDS011;62992;52.052;8.550;2022-12-22T06:19:30;7.68;;;3.78;;
74512;SDS011;62992;52.052;8.550;2022-12-22T06:22:14;6.70;;;4.35;;
74512;SDS011;62992;52.052;8.550;2022-12-22T06:24:58;7.57;;;4.20;;
74512;SDS011;62992;52.052;8.550;2022-12-22T06:27:42;7.28;;;4.72;;
74512;SDS011;62992;52.052;8.550;2022-12-22T06:30:26;6.88;;;4.90;;
74512;SDS011;62992;52.052;8.550;2022-12-22T06:33:10;9.38;;;5.57;;
74512;SDS011;62992;52.052;8.550;2022-12-22T06:35:54;13.77;;;5.63;;
74512;SDS011;62992;52.052;8.550;2022-12-22T06:38:38;8.32;;;5.20;;
74512;SDS011;62992;52.052;8.550;2022-12-22T06:41:22;8.20;;;5.22;;
74512;SDS011;62992;52.052;8.550;2022-12-22T06:44:25;8.82;;;5.30;;
74512;SDS011;62992;52.052;8.550;2022-12-22T06:47:10;8.50;;;5.35;;
74512;SDS011;62992;52.052;8.550;2022-12-22T06:49:54;9.65;;;5.78;;
74512;SDS011;62992;52.052;8.550;2022-12-22T06:52:38;8.32;;;5.22;;
74512;SDS011;62992;52.052;8.550;2022-12-22T06:55:23;8.75;;;5.43;;
74512;SDS011;62992;52.052;8.550;2022-12-22T06:58:07;9.68;;;5.38;;
74512;SDS011;62992;52.052;8.550;2022-12-22T07:00:51;8.05;;;5.43;;
74512;SDS011;62992;52.052;8.550;2022-12-22T07:03:38;8.93;;;5.03;;
74512;SDS011;62992;52.052;8.550;2022-12-22T07:06:23;9.27;;;5.10;;
74512;SDS011;62992;52.052;8.550;2022-12-22T07:09:06;7.28;;;4.80;;
74512;SDS011;62992;52.052;8.550;2022-12-22T07:11:50;8.15;;;5.10;;
74512;SDS011;62992;52.052;8.550;2022-12-22T07:14:34;8.38;;;5.40;;
74512;SDS011;62992;52.052;8.550;2022-12-22T07:17:18;8.25;;;5.03;;
74512;SDS011;62992;52.052;8.550;2022-12-22T07:20:03;8.23;;;4.97;;
74512;SDS011;62992;52.052;8.550;2022-12-22T07:22:47;12.82;;;5.55;;
74512;SDS011;62992;52.052;8.550;2022-12-22T07:25:31;11.55;;;5.90;;
74512;SDS011;62992;52.052;8.550;2022-12-22T07:28:15;9.23;;;5.80;;
74512;SDS011;62992;52.052;8.550;2022-12-22T07:31:00;17.30;;;6.25;;
74512;SDS011;62992;52.052;8.550;2022-12-22T07:33:44;13.05;;;6.00;;
74512;SDS011;62992;52.052;8.550;2022-12-22T07:36:28;10.32;;;6.10;;
74512;SDS011;62992;52.052;8.550;2022-12-22T07:39:12;9.32;;;5.50;;
74512;SDS011;62992;52.052;8.550;2022-12-22T07:41:57;12.27;;;6.07;;
74512;SDS011;62992;52.052;8.550;2022-12-22T07:45:00;10.00;;;5.85;;
74512;SDS011;62992;52.052;8.550;2022-12-22T07:47:44;10.10;;;6.03;;
74512;SDS011;62992;52.052;8.550;2022-12-22T07:50:29;9.15;;;5.50;;
74512;SDS011;62992;52.052;8.550;2022-12-22T07:53:15;8.00;;;5.25;;
74512;SDS011;62992;52.052;8.550;2022-12-22T07:56:02;9.00;;;5.18;;
74512;SDS011;62992;52.052;8.550;2022-12-22T07:58:47;8.35;;;5.57;;
74512;SDS011;62992;52.052;8.550;2022-12-22T08:01:31;10.15;;;5.95;;
74512;SDS011;62992;52.052;8.550;2022-12-22T08:04:15;10.60;;;6.35;;
74512;SDS011;62992;52.052;8.550;2022-12-22T08:06:59;9.73;;;5.82;;
74512;SDS011;62992;52.052;8.550;2022-12-22T08:09:43;10.63;;;6.65;;
74512;SDS011;62992;52.052;8.550;2022-12-22T08:12:27;10.23;;;6.32;;
74512;SDS011;62992;52.052;8.550;2022-12-22T08:15:12;12.45;;;6.85;;
74512;SDS011;62992;52.052;8.550;2022-12-22T08:17:56;10.30;;;6.15;;
74512;SDS011;62992;52.052;8.550;2022-12-22T08:20:40;10.77;;;6.25;;
74512;SDS011;62992;52.052;8.550;2022-12-22T08:23:31;11.00;;;6.90;;
74512;SDS011;62992;52.052;8.550;2022-12-22T08:26:20;14.00;;;7.32;;
74512;SDS011;62992;52.052;8.550;2022-12-22T08:31:58;13.93;;;7.63;;
74512;SDS011;62992;52.052;8.550;2022-12-22T08:34:43;12.65;;;7.07;;
74512;SDS011;62992;52.052;8.550;2022-12-22T08:37:27;12.05;;;7.38;;
74512;SDS011;62992;52.052;8.550;2022-12-22T08:40:17;12.25;;;7.18;;
74512;SDS011;62992;52.052;8.550;2022-12-22T08:43:07;12.40;;;7.38;;
74512;SDS011;62992;52.052;8.550;2022-12-22T08:45:52;10.80;;;6.70;;
74512;SDS011;62992;52.052;8.550;2022-12-22T08:48:36;10.77;;;6.57;;
74512;SDS011;62992;52.052;8.550;2022-12-22T08:51:21;12.80;;;7.30;;
74512;SDS011;62992;52.052;8.550;2022-12-22T08:54:05;12.68;;;6.90;;
74512;SDS011;62992;52.052;8.550;2022-12-22T08:56:49;11.73;;;6.80;;
74512;SDS011;62992;52.052;8.550;2022-12-22T08:59:33;11.77;;;6.82;;
74512;SDS011;62992;52.052;8.550;2022-12-22T09:02:17;10.00;;;6.30;;
74512;SDS011;62992;52.052;8.550;2022-12-22T09:05:01;10.48;;;6.30;;
74512;SDS011;62992;52.052;8.550;2022-12-22T09:07:45;9.55;;;5.90;;
74512;SDS011;62992;52.052;8.550;2022-12-22T09:10:30;11.35;;;6.18;;
74512;SDS011;62992;52.052;8.550;2022-12-22T09:13:14;10.52;;;5.70;;
74512;SDS011;62992;52.052;8.550;2022-12-22T09:16:03;11.20;;;6.40;;
74512;SDS011;62992;52.052;8.550;2022-12-22T09:18:51;14.35;;;5.95;;
74512;SDS011;62992;52.052;8.550;2022-12-22T09:21:35;12.52;;;5.35;;
74512;SDS011;62992;52.052;8.550;2022-12-22T09:24:20;10.25;;;5.75;;
74512;SDS011;62992;52.052;8.550;2022-12-22T09:27:04;10.90;;;5.93;;
74512;SDS011;62992;52.052;8.550;2022-12-22T09:29:50;10.80;;;6.07;;
74512;SDS011;62992;52.052;8.550;2022-12-22T09:32:34;10.23;;;5.60;;
74512;SDS011;62992;52.052;8.550;2022-12-22T09:35:18;10.45;;;5.30;;
74512;SDS011;62992;52.052;8.550;2022-12-22T09:38:02;10.32;;;5.97;;
74512;SDS011;62992;52.052;8.550;2022-12-22T09:40:47;10.07;;;5.90;;
74512;SDS011;62992;52.052;8.550;2022-12-22T09:43:31;9.80;;;5.57;;
74512;SDS011;62992;52.052;8.550;2022-12-22T09:46:22;8.63;;;5.20;;
74512;SDS011;62992;52.052;8.550;2022-12-22T09:49:13;9.65;;;5.78;;
74512;SDS011;62992;52.052;8.550;2022-12-22T09:52:00;11.93;;;6.10;;
74512;SDS011;62992;52.052;8.550;2022-12-22T09:54:46;12.02;;;6.22;;
74512;SDS011;62992;52.052;8.550;2022-12-22T09:57:30;11.52;;;6.25;;
74512;SDS011;62992;52.052;8.550;2022-12-22T10:00:19;12.98;;;6.53;;
74512;SDS011;62992;52.052;8.550;2022-12-22T10:06:19;13.77;;;6.93;;
74512;SDS011;62992;52.052;8.550;2022-12-22T10:09:25;13.25;;;6.00;;
74512;SDS011;62992;52.052;8.550;2022-12-22T10:12:16;12.43;;;6.35;;
74512;SDS011;62992;52.052;8.550;2022-12-22T10:15:04;13.50;;;6.65;;
74512;SDS011;62992;52.052;8.550;2022-12-22T10:17:55;11.05;;;6.18;;
74512;SDS011;62992;52.052;8.550;2022-12-22T10:21:06;12.63;;;5.82;;
74512;SDS011;62992;52.052;8.550;2022-12-22T10:23:52;11.85;;;5.47;;
74512;SDS011;62992;52.052;8.550;2022-12-22T10:26:37;13.25;;;6.20;;
74512;SDS011;62992;52.052;8.550;2022-12-22T10:29:21;13.57;;;6.72;;
74512;SDS011;62992;52.052;8.550;2022-12-22T10:32:13;10.48;;;5.97;;
74512;SDS011;62992;52.052;8.550;2022-12-22T10:35:00;10.90;;;5.35;;
74512;SDS011;62992;52.052;8.550;2022-12-22T10:37:48;10.15;;;5.15;;
74512;SDS011;62992;52.052;8.550;2022-12-22T10:40:32;10.63;;;5.18;;
74512;SDS011;62992;52.052;8.550;2022-12-22T10:43:27;8.52;;;5.22;;
74512;SDS011;62992;52.052;8.550;2022-12-22T10:46:17;11.23;;;4.80;;
74512;SDS011;62992;52.052;8.550;2022-12-22T10:49:21;9.18;;;4.13;;
74512;SDS011;62992;52.052;8.550;2022-12-22T10:55:13;8.48;;;4.30;;
74512;SDS011;62992;52.052;8.550;2022-12-22T11:01:00;8.43;;;4.53;;
74512;SDS011;62992;52.052;8.550;2022-12-22T11:03:46;8.38;;;4.65;;
74512;SDS011;62992;52.052;8.550;2022-12-22T11:06:30;8.30;;;4.10;;
74512;SDS011;62992;52.052;8.550;2022-12-22T11:09:14;8.85;;;4.70;;
74512;SDS011;62992;52.052;8.550;2022-12-22T11:12:01;10.18;;;4.72;;
74512;SDS011;62992;52.052;8.550;2022-12-22T11:32:42;14.82;;;7.00;;
74512;SDS011;62992;52.052;8.550;2022-12-22T11:35:45;15.05;;;7.38;;
74512;SDS011;62992;52.052;8.550;2022-12-22T11:44:49;12.52;;;6.57;;
74512;SDS011;62992;52.052;8.550;2022-12-22T11:47:41;16.75;;;6.97;;
74512;SDS011;62992;52.052;8.550;2022-12-22T11:50:45;16.85;;;7.57;;
74512;SDS011;62992;52.052;8.550;2022-12-22T11:59:35;14.63;;;6.97;;
74512;SDS011;62992;52.052;8.550;2022-12-22T12:12:27;14.18;;;6.85;;
74512;SDS011;62992;52.052;8.550;2022-12-22T12:21:39;14.13;;;7.40;;
74512;SDS011;62992;52.052;8.550;2022-12-22T12:24:56;16.17;;;7.07;;
74512;SDS011;62992;52.052;8.550;2022-12-22T12:30:49;12.20;;;6.78;;
74512;SDS011;62992;52.052;8.550;2022-12-22T12:33:41;15.95;;;6.90;;
74512;SDS011;62992;52.052;8.550;2022-12-22T12:36:45;14.80;;;6.93;;
74512;SDS011;62992;52.052;8.550;2022-12-22T12:42:47;12.88;;;6.90;;
74512;SDS011;62992;52.052;8.550;2022-12-22T13:09:17;13.35;;;7.38;;
74512;SDS011;62992;52.052;8.550;2022-12-22T13:15:35;14.95;;;6.60;;
74512;SDS011;62992;52.052;8.550;2022-12-22T13:26:48;14.75;;;6.60;;
74512;SDS011;62992;52.052;8.550;2022-12-22T13:29:41;13.73;;;7.65;;
74512;SDS011;62992;52.052;8.550;2022-12-22T13:32:29;14.65;;;7.30;;
74512;SDS011;62992;52.052;8.550;2022-12-22T13:35:31;16.42;;;7.88;;
74512;SDS011;62992;52.052;8.550;2022-12-22T13:38:27;12.95;;;7.07;;
74512;SDS011;62992;52.052;8.550;2022-12-22T13:41:15;13.52;;;6.60;;
74512;SDS011;62992;52.052;8.550;2022-12-22T13:44:03;14.95;;;7.13;;
74512;SDS011;62992;52.052;8.550;2022-12-22T13:46:50;15.30;;;7.32;;
74512;SDS011;62992;52.052;8.550;2022-12-22T13:49:34;14.38;;;7.70;;
74512;SDS011;62992;52.052;8.550;2022-12-22T13:52:19;14.05;;;7.57;;
74512;SDS011;62992;52.052;8.550;2022-12-22T13:55:04;15.45;;;7.60;;
74512;SDS011;62992;52.052;8.550;2022-12-22T13:58:04;16.70;;;8.18;;
74512;SDS011;62992;52.052;8.550;2022-12-22T14:01:01;15.18;;;7.20;;
74512;SDS011;62992;52.052;8.550;2022-12-22T14:04:02;12.95;;;6.75;;
74512;SDS011;62992;52.052;8.550;2022-12-22T14:06:49;13.35;;;6.97;;
74512;SDS011;62992;52.052;8.550;2022-12-22T14:09:34;13.40;;;6.72;;
74512;SDS011;62992;52.052;8.550;2022-12-22T14:12:19;13.93;;;7.07;;
74512;SDS011;62992;52.052;8.550;2022-12-22T14:15:07;12.93;;;6.35;;
74512;SDS011;62992;52.052;8.550;2022-12-22T14:17:59;15.68;;;7.57;;
74512;SDS011;62992;52.052;8.550;2022-12-22T14:20:44;15.00;;;7.40;;
74512;SDS011;62992;52.052;8.550;2022-12-22T14:26:21;14.05;;;6.60;;
74512;SDS011;62992;52.052;8.550;2022-12-22T14:29:16;15.07;;;7.35;;
74512;SDS011;62992;52.052;8.550;2022-12-22T14:32:04;15.50;;;7.50;;
74512;SDS011;62992;52.052;8.550;2022-12-22T14:34:51;15.60;;;8.95;;
74512;SDS011;62992;52.052;8.550;2022-12-22T14:37:37;13.38;;;8.35;;
74512;SDS011;62992;52.052;8.550;2022-12-22T14:40:37;17.05;;;8.57;;
74512;SDS011;62992;52.052;8.550;2022-12-22T14:43:24;17.52;;;8.32;;
74512;SDS011;62992;52.052;8.550;2022-12-22T14:46:12;16.00;;;8.10;;
74512;SDS011;62992;52.052;8.550;2022-12-22T14:48:56;15.80;;;7.93;;
74512;SDS011;62992;52.052;8.550;2022-12-22T14:51:42;18.33;;;8.75;;
74512;SDS011;62992;52.052;8.550;2022-12-22T14:54:35;17.42;;;8.38;;
74512;SDS011;62992;52.052;8.550;2022-12-22T14:57:29;17.15;;;8.05;;
74512;SDS011;62992;52.052;8.550;2022-12-22T15:03:24;16.25;;;7.50;;
74512;SDS011;62992;52.052;8.550;2022-12-22T15:06:20;19.23;;;9.07;;
74512;SDS011;62992;52.052;8.550;2022-12-22T15:12:10;20.67;;;8.85;;
74512;SDS011;62992;52.052;8.550;2022-12-22T15:14:57;14.90;;;8.13;;
74512;SDS011;62992;52.052;8.550;2022-12-22T15:17:44;15.75;;;7.32;;
74512;SDS011;62992;52.052;8.550;2022-12-22T15:20:30;17.15;;;8.10;;
74512;SDS011;62992;52.052;8.550;2022-12-22T15:23:14;16.40;;;6.97;;
74512;SDS011;62992;52.052;8.550;2022-12-22T15:25:59;12.70;;;7.20;;
74512;SDS011;62992;52.052;8.550;2022-12-22T15:28:43;21.08;;;8.77;;
74512;SDS011;62992;52.052;8.550;2022-12-22T15:31:27;16.80;;;7.75;;
74512;SDS011;62992;52.052;8.550;2022-12-22T15:34:27;18.50;;;8.02;;
74512;SDS011;62992;52.052;8.550;2022-12-22T15:37:14;15.55;;;7.22;;
74512;SDS011;62992;52.052;8.550;2022-12-22T15:39:58;16.35;;;7.82;;
74512;SDS011;62992;52.052;8.550;2022-12-22T15:42:42;19.15;;;8.77;;
74512;SDS011;62992;52.052;8.550;2022-12-22T15:45:26;19.73;;;8.73;;
74512;SDS011;62992;52.052;8.550;2022-12-22T15:48:17;18.08;;;8.32;;
74512;SDS011;62992;52.052;8.550;2022-12-22T15:51:22;22.05;;;7.88;;
74512;SDS011;62992;52.052;8.550;2022-12-22T15:54:09;18.88;;;8.13;;
74512;SDS011;62992;52.052;8.550;2022-12-22T15:56:56;22.33;;;8.63;;
74512;SDS011;62992;52.052;8.550;2022-12-22T15:59:41;16.83;;;7.00;;
74512;SDS011;62992;52.052;8.550;2022-12-22T16:02:25;19.48;;;7.95;;
74512;SDS011;62992;52.052;8.550;2022-12-22T16:05:09;17.88;;;8.48;;
74512;SDS011;62992;52.052;8.550;2022-12-22T16:07:54;18.60;;;9.15;;
74512;SDS011;62992;52.052;8.550;2022-12-22T16:10:39;17.05;;;7.75;;
74512;SDS011;62992;52.052;8.550;2022-12-22T16:13:24;15.93;;;8.03;;
74512;SDS011;62992;52.052;8.550;2022-12-22T16:16:10;17.30;;;8.07;;
74512;SDS011;62992;52.052;8.550;2022-12-22T16:18:55;22.75;;;10.18;;
74512;SDS011;62992;52.052;8.550;2022-12-22T16:21:39;17.30;;;8.60;;
74512;SDS011;62992;52.052;8.550;2022-12-22T16:24:25;20.65;;;9.35;;
74512;SDS011;62992;52.052;8.550;2022-12-22T16:27:14;18.65;;;9.48;;
74512;SDS011;62992;52.052;8.550;2022-12-22T16:29:59;17.80;;;8.70;;
74512;SDS011;62992;52.052;8.550;2022-12-22T16:32:43;21.42;;;10.90;;
74512;SDS011;62992;52.052;8.550;2022-12-22T16:35:28;21.15;;;10.07;;
74512;SDS011;62992;52.052;8.550;2022-12-22T16:38:15;22.67;;;9.65;;
74512;SDS011;62992;52.052;8.550;2022-12-22T16:40:59;22.05;;;9.15;;
74512;SDS011;62992;52.052;8.550;2022-12-22T16:43:46;17.27;;;9.82;;
74512;SDS011;62992;52.052;8.550;2022-12-22T16:46:31;23.63;;;10.90;;
74512;SDS011;62992;52.052;8.550;2022-12-22T16:49:20;19.77;;;9.10;;
74512;SDS011;62992;52.052;8.550;2022-12-22T16:52:05;22.70;;;11.38;;
74512;SDS011;62992;52.052;8.550;2022-12-22T16:54:49;26.13;;;11.98;;
74512;SDS011;62992;52.052;8.550;2022-12-22T16:57:33;24.52;;;12.38;;
74512;SDS011;62992;52.052;8.550;2022-12-22T17:00:21;28.30;;;12.63;;
74512;SDS011;62992;52.052;8.550;2022-12-22T17:03:21;26.75;;;12.85;;
74512;SDS011;62992;52.052;8.550;2022-12-22T17:06:08;24.98;;;12.38;;
74512;SDS011;62992;52.052;8.550;2022-12-22T17:08:53;25.60;;;12.68;;
74512;SDS011;62992;52.052;8.550;2022-12-22T17:11:37;23.95;;;11.52;;
74512;SDS011;62992;52.052;8.550;2022-12-22T17:17:10;26.30;;;12.60;;
74512;SDS011;62992;52.052;8.550;2022-12-22T17:20:01;25.88;;;12.85;;
74512;SDS011;62992;52.052;8.550;2022-12-22T17:22:49;26.38;;;13.70;;
74512;SDS011;62992;52.052;8.550;2022-12-22T17:25:38;28.13;;;13.60;;
74512;SDS011;62992;52.052;8.550;2022-12-22T17:28:22;29.33;;;13.68;;
74512;SDS011;62992;52.052;8.550;2022-12-22T17:31:09;30.75;;;14.20;;
74512;SDS011;62992;52.052;8.550;2022-12-22T17:34:00;30.58;;;14.45;;
74512;SDS011;62992;52.052;8.550;2022-12-22T17:36:55;27.77;;;13.60;;
74512;SDS011;62992;52.052;8.550;2022-12-22T17:42:26;26.30;;;14.50;;
74512;SDS011;62992;52.052;8.550;2022-12-22T17:45:11;31.63;;;14.00;;
74512;SDS011;62992;52.052;8.550;2022-12-22T17:47:57;30.58;;;14.57;;
74512;SDS011;62992;52.052;8.550;2022-12-22T17:50:42;27.25;;;13.32;;
74512;SDS011;62992;52.052;8.550;2022-12-22T17:56:22;30.02;;;13.10;;
74512;SDS011;62992;52.052;8.550;2022-12-22T17:59:10;27.70;;;13.93;;
74512;SDS011;62992;52.052;8.550;2022-12-22T18:01:54;30.50;;;13.55;;
74512;SDS011;62992;52.052;8.550;2022-12-22T18:04:38;28.15;;;14.32;;
74512;SDS011;62992;52.052;8.550;2022-12-22T18:07:22;35.33;;;15.50;;
74512;SDS011;62992;52.052;8.550;2022-12-22T18:10:30;30.17;;;14.90;;
74512;SDS011;62992;52.052;8.550;2022-12-22T18:13:20;28.13;;;14.50;;
74512;SDS011;62992;52.052;8.550;2022-12-22T18:16:10;35.15;;;14.20;;
74512;SDS011;62992;52.052;8.550;2022-12-22T18:18:57;27.95;;;13.25;;
74512;SDS011;62992;52.052;8.550;2022-12-22T18:21:41;28.55;;;13.40;;
74512;SDS011;62992;52.052;8.550;2022-12-22T18:24:26;24.92;;;12.95;;
74512;SDS011;62992;52.052;8.550;2022-12-22T18:27:11;27.80;;;12.57;;
74512;SDS011;62992;52.052;8.550;2022-12-22T18:29:56;24.50;;;12.45;;
74512;SDS011;62992;52.052;8.550;2022-12-22T18:32:40;25.48;;;12.45;;
74512;SDS011;62992;52.052;8.550;2022-12-22T18:35:24;21.23;;;11.48;;
74512;SDS011;62992;52.052;8.550;2022-12-22T18:38:22;23.88;;;11.77;;
74512;SDS011;62992;52.052;8.550;2022-12-22T18:41:09;19.60;;;10.50;;
74512;SDS011;62992;52.052;8.550;2022-12-22T18:43:57;19.75;;;9.95;;
74512;SDS011;62992;52.052;8.550;2022-12-22T18:46:41;22.30;;;10.70;;
74512;SDS011;62992;52.052;8.550;2022-12-22T18:49:26;21.13;;;11.07;;
74512;SDS011;62992;52.052;8.550;2022-12-22T18:52:13;21.85;;;11.65;;
74512;SDS011;62992;52.052;8.550;2022-12-22T18:55:03;24.20;;;11.65;;
74512;SDS011;62992;52.052;8.550;2022-12-22T18:57:48;23.13;;;12.40;;
74512;SDS011;62992;52.052;8.550;2022-12-22T19:03:20;21.30;;;10.90;;
74512;SDS011;62992;52.052;8.550;2022-12-22T19:06:08;26.23;;;12.07;;
74512;SDS011;62992;52.052;8.550;2022-12-22T19:08:52;22.20;;;12.73;;
74512;SDS011;62992;52.052;8.550;2022-12-22T19:11:36;24.52;;;12.35;;
74512;SDS011;62992;52.052;8.550;2022-12-22T19:14:20;24.98;;;11.85;;
74512;SDS011;62992;52.052;8.550;2022-12-22T19:17:18;25.38;;;12.10;;
74512;SDS011;62992;52.052;8.550;2022-12-22T19:20:09;23.13;;;12.73;;